createdAt,value
2019-01-03T00:00:27.008Z,2.09
2019-01-03T00:03:19.258Z,2.15
2019-01-03T00:06:08.928Z,2.07
2019-01-03T00:08:54.407Z,2.05
2019-01-03T00:11:41.180Z,1.88
2019-01-03T00:14:29.925Z,1.74
2019-01-03T00:17:15.543Z,1.69
2019-01-03T00:20:00.793Z,1.67
2019-01-03T00:22:54.077Z,2.08
2019-01-03T00:25:43.077Z,2.30
2019-01-03T00:28:29.408Z,2.49
2019-01-03T00:31:10.969Z,2.55
2019-01-03T00:33:55.757Z,2.48
2019-01-03T00:36:41.957Z,2.48
2019-01-03T00:39:26.927Z,2.33
2019-01-03T00:42:22.806Z,2.19
2019-01-03T00:45:08.054Z,2.04
2019-01-03T00:48:02.307Z,2.02
2019-01-03T00:51:01.242Z,2.04
2019-01-03T00:53:46.326Z,2.03
2019-01-03T00:56:31.814Z,1.73
2019-01-03T00:59:21.309Z,1.42
2019-01-03T01:02:06.203Z,1.57
2019-01-03T01:04:52.356Z,1.67
2019-01-03T01:07:55.051Z,1.75
2019-01-03T01:10:53.515Z,1.84
2019-01-03T01:13:38.397Z,1.74
2019-01-03T01:16:27.857Z,1.73
2019-01-03T01:19:18.998Z,1.69
2019-01-03T01:22:04.253Z,1.53
2019-01-03T01:24:59.814Z,1.32
2019-01-03T01:27:46.169Z,1.38
2019-01-03T01:30:31.138Z,1.51
2019-01-03T01:33:23.871Z,1.64
2019-01-03T01:36:09.403Z,1.63
2019-01-03T01:38:57.187Z,1.34
2019-01-03T01:41:38.994Z,1.18
2019-01-03T01:44:34.639Z,1.02
2019-01-03T01:47:15.459Z,1.02
2019-01-03T01:50:01.479Z,1.09
2019-01-03T01:52:50.122Z,1.00
2019-01-03T01:55:36.548Z,1.15
2019-01-03T01:58:22.647Z,1.37
2019-01-03T02:01:18.644Z,1.42
2019-01-03T02:04:04.040Z,1.39
2019-01-03T02:06:49.000Z,1.12
2019-01-03T02:09:41.348Z,1.09
2019-01-03T02:12:26.540Z,1.11
2019-01-03T02:15:19.453Z,1.02
2019-01-03T02:18:14.872Z,0.98
2019-01-03T02:21:06.802Z,0.95
2019-01-03T02:24:11.297Z,0.80
2019-01-03T02:27:15.939Z,0.78
2019-01-03T02:30:00.913Z,0.47
2019-01-03T02:32:44.983Z,0.37
2019-01-03T02:35:30.503Z,0.29
2019-01-03T02:38:22.187Z,0.37
2019-01-03T02:41:11.568Z,0.31
2019-01-03T02:44:00.015Z,0.30
2019-01-03T02:46:53.351Z,0.35
2019-01-03T02:49:34.131Z,0.39
2019-01-03T02:52:20.470Z,0.47
2019-01-03T02:55:25.024Z,0.51
2019-01-03T02:58:11.383Z,0.60
2019-01-03T03:01:01.110Z,0.33
2019-01-03T03:03:46.306Z,0.04
2019-01-03T03:06:38.392Z,-0.19
2019-01-03T03:09:27.742Z,-0.22
2019-01-03T03:12:14.032Z,-0.17
2019-01-03T03:15:13.002Z,0.07
2019-01-03T03:18:02.577Z,0.07
2019-01-03T03:20:41.950Z,0.11
2019-01-03T03:23:31.201Z,0.19
2019-01-03T03:26:16.070Z,0.41
2019-01-03T03:29:10.556Z,0.17
2019-01-03T03:32:01.344Z,0.15
2019-01-03T03:34:59.436Z,0.14
2019-01-03T03:37:41.451Z,0.11
2019-01-03T03:40:43.178Z,0.36
2019-01-03T03:43:36.053Z,0.52
2019-01-03T03:46:17.929Z,0.66
2019-01-03T03:49:04.280Z,0.71
2019-01-03T03:52:03.101Z,0.72
2019-01-03T03:54:52.916Z,0.41
2019-01-03T03:57:39.285Z,0.52
2019-01-03T04:00:25.651Z,0.71
2019-01-03T04:03:27.024Z,0.85
2019-01-03T04:06:11.922Z,0.87
2019-01-03T04:08:56.908Z,0.85
2019-01-03T04:11:55.540Z,0.81
2019-01-03T04:14:44.637Z,0.91
2019-01-03T04:17:36.525Z,1.14
2019-01-03T04:20:25.132Z,0.98
2019-01-03T04:23:14.483Z,0.88
2019-01-03T04:25:59.679Z,0.84
2019-01-03T04:28:43.994Z,0.90
2019-01-03T04:31:23.960Z,0.66
2019-01-03T04:34:09.153Z,0.66
2019-01-03T04:36:49.697Z,0.85
2019-01-03T04:39:34.792Z,0.83
2019-01-03T04:42:19.939Z,0.84
2019-01-03T04:45:00.405Z,0.84
2019-01-03T04:47:47.728Z,0.70
2019-01-03T04:50:32.696Z,0.72
2019-01-03T04:53:21.728Z,0.81
2019-01-03T04:56:09.483Z,0.87
2019-01-03T04:58:54.768Z,0.93
2019-01-03T05:02:05.822Z,0.91
2019-01-03T05:04:50.802Z,0.71
2019-01-03T05:07:37.753Z,0.65
2019-01-03T05:10:33.054Z,0.65
2019-01-03T05:13:19.532Z,0.64
2019-01-03T05:16:17.914Z,0.70
2019-01-03T05:19:16.327Z,0.55
2019-01-03T05:22:01.361Z,0.64
2019-01-03T05:24:51.473Z,0.92
2019-01-03T05:27:37.965Z,0.83
2019-01-03T05:30:31.167Z,0.83
2019-01-03T05:33:35.365Z,0.57
2019-01-03T05:36:23.448Z,0.59
2019-01-03T05:39:11.066Z,0.70
2019-01-03T05:42:15.767Z,0.63
2019-01-03T05:45:01.699Z,0.65
2019-01-03T05:47:46.433Z,0.75
2019-01-03T05:50:31.190Z,0.67
2019-01-03T05:53:16.174Z,0.59
2019-01-03T05:56:01.236Z,0.65
2019-01-03T05:58:45.476Z,0.74
2019-01-03T06:01:46.876Z,0.71
2019-01-03T06:04:32.267Z,0.72
2019-01-03T06:07:34.486Z,0.87
2019-01-03T06:10:14.220Z,1.16
2019-01-03T06:12:58.959Z,1.40
2019-01-03T06:15:51.302Z,1.28
2019-01-03T06:18:47.200Z,1.14
2019-01-03T06:21:48.680Z,1.11
2019-01-03T06:24:37.884Z,1.13
2019-01-03T06:27:22.805Z,1.15
2019-01-03T06:30:08.176Z,1.14
2019-01-03T06:32:53.017Z,1.17
2019-01-03T06:35:38.321Z,1.23
2019-01-03T06:38:36.964Z,1.18
2019-01-03T06:41:27.931Z,1.26
2019-01-03T06:44:13.705Z,1.35
2019-01-03T06:46:58.449Z,1.42
2019-01-03T06:49:44.773Z,1.33
2019-01-03T06:52:49.177Z,1.31
2019-01-03T06:55:47.497Z,1.37
2019-01-03T06:58:35.192Z,1.39
2019-01-03T07:01:27.975Z,1.36
2019-01-03T07:04:15.891Z,1.33
2019-01-03T07:07:12.643Z,1.22
2019-01-03T07:09:57.816Z,1.28
2019-01-03T07:12:44.169Z,1.37
2019-01-03T07:15:39.206Z,1.42
2019-01-03T07:18:20.385Z,1.36
2019-01-03T07:21:05.326Z,1.44
2019-01-03T07:23:50.296Z,1.44
2019-01-03T07:26:35.099Z,1.43
2019-01-03T07:29:20.274Z,1.48
2019-01-03T07:32:00.829Z,1.61
2019-01-03T07:35:02.360Z,1.56
2019-01-03T07:37:47.500Z,1.54
2019-01-03T07:40:27.183Z,1.62
2019-01-03T07:43:12.345Z,1.58
2019-01-03T07:45:54.170Z,1.53
2019-01-03T07:48:39.615Z,1.65
2019-01-03T07:51:44.239Z,1.67
2019-01-03T07:54:44.725Z,1.61
2019-01-03T07:57:34.594Z,1.60
2019-01-03T08:00:19.821Z,1.77
2019-01-03T08:03:04.916Z,1.88
2019-01-03T08:05:53.985Z,1.81
2019-01-03T08:08:39.570Z,1.74
2019-01-03T08:11:38.259Z,1.81
2019-01-03T08:14:24.238Z,1.78
2019-01-03T08:17:09.323Z,1.80
2019-01-03T08:20:10.753Z,1.91
2019-01-03T08:23:08.767Z,1.93
2019-01-03T08:25:49.197Z,1.96
2019-01-03T08:28:34.198Z,0.67
2019-01-03T08:31:19.202Z,2.06
2019-01-03T08:34:09.155Z,2.14
2019-01-03T08:37:01.455Z,2.16
2019-01-03T08:39:58.136Z,2.03
2019-01-03T08:42:48.912Z,2.16
2019-01-03T08:45:34.285Z,2.34
2019-01-03T08:48:19.586Z,2.36
2019-01-03T08:51:06.162Z,2.59
2019-01-03T08:53:51.229Z,2.76
2019-01-03T08:56:32.225Z,2.74
2019-01-03T08:59:19.811Z,2.73
2019-01-03T09:02:10.959Z,2.70
2019-01-03T09:05:03.113Z,2.74
2019-01-03T09:08:01.189Z,2.92
2019-01-03T09:10:47.754Z,2.99
2019-01-03T09:13:34.197Z,3.13
2019-01-03T09:16:14.398Z,3.12
2019-01-03T09:18:59.367Z,3.03
2019-01-03T09:21:52.117Z,3.03
2019-01-03T09:24:47.860Z,3.00
2019-01-03T09:27:40.592Z,3.06
2019-01-03T09:30:25.554Z,3.16
2019-01-03T09:33:14.983Z,3.32
2019-01-03T09:36:01.324Z,3.19
2019-01-03T09:38:46.897Z,3.13
2019-01-03T09:41:32.251Z,3.06
2019-01-03T09:44:19.090Z,3.08
2019-01-03T09:46:46.110Z,3.24
2019-01-03T09:49:12.968Z,3.43
2019-01-03T09:51:39.697Z,3.70
2019-01-03T09:54:06.624Z,3.72
2019-01-03T09:56:33.343Z,3.61
2019-01-03T09:59:01.749Z,3.67
2019-01-03T10:01:28.515Z,3.61
2019-01-03T10:03:55.374Z,3.70
2019-01-03T10:06:22.110Z,3.54
2019-01-03T10:08:48.973Z,3.38
2019-01-03T10:11:15.753Z,3.39
2019-01-03T10:13:42.492Z,3.06
2019-01-03T10:16:10.822Z,2.96
2019-01-03T10:18:38.020Z,2.89
2019-01-03T10:21:04.789Z,2.82
2019-01-03T10:23:31.921Z,2.79
2019-01-03T10:25:58.752Z,2.81
2019-01-03T10:28:25.552Z,2.99
2019-01-03T10:30:52.658Z,2.89
2019-01-03T10:33:20.728Z,2.89
2019-01-03T10:35:47.491Z,2.92
2019-01-03T10:38:14.245Z,3.05
2019-01-03T10:40:41.101Z,2.97
2019-01-03T10:43:07.840Z,3.08
2019-01-03T10:45:34.579Z,3.17
2019-01-03T10:48:01.297Z,3.26
2019-01-03T10:50:28.277Z,3.42
2019-01-03T10:52:54.978Z,3.60
2019-01-03T10:55:23.251Z,3.52
2019-01-03T10:57:50.128Z,3.64
2019-01-03T11:00:24.285Z,3.43
2019-01-03T11:02:51.074Z,3.20
2019-01-03T11:05:17.888Z,3.17
2019-01-03T11:07:45.556Z,3.41
2019-01-03T11:10:12.578Z,3.67
2019-01-03T11:12:39.520Z,3.78
2019-01-03T11:15:06.771Z,3.88
2019-01-03T11:17:36.231Z,4.03
2019-01-03T11:20:04.084Z,4.05
2019-01-03T11:22:30.758Z,3.97
2019-01-03T11:24:57.655Z,4.03
2019-01-03T11:27:25.623Z,4.13
2019-01-03T11:29:53.004Z,4.30
2019-01-03T11:32:19.756Z,4.31
2019-01-03T11:34:46.551Z,4.26
2019-01-03T11:37:13.263Z,4.29
2019-01-03T11:39:41.445Z,4.31
2019-01-03T11:42:08.147Z,4.42
2019-01-03T11:44:34.905Z,4.41
2019-01-03T11:47:01.635Z,4.47
2019-01-03T11:49:31.652Z,4.37
2019-01-03T11:51:58.514Z,4.51
2019-01-03T11:54:25.222Z,4.46
2019-01-03T11:56:54.652Z,4.35
2019-01-03T11:59:21.639Z,4.29
2019-01-03T12:01:48.843Z,4.43
2019-01-03T12:04:16.494Z,4.55
2019-01-03T12:06:43.257Z,4.56
2019-01-03T12:09:10.456Z,4.43
2019-01-03T12:11:37.597Z,4.45
2019-01-03T12:14:04.339Z,4.54
2019-01-03T12:16:31.188Z,4.62
2019-01-03T12:18:59.944Z,4.80
2019-01-03T12:21:26.866Z,4.60
2019-01-03T12:23:56.021Z,4.72
2019-01-03T12:26:22.753Z,4.71
2019-01-03T12:28:49.548Z,4.81
2019-01-03T12:31:16.325Z,4.64
2019-01-03T12:33:44.313Z,4.45
2019-01-03T12:36:11.448Z,4.71
2019-01-03T12:38:39.388Z,4.76
2019-01-03T12:41:06.391Z,4.87
2019-01-03T12:43:33.132Z,4.83
2019-01-03T12:45:59.941Z,4.60
2019-01-03T12:48:26.877Z,4.63
2019-01-03T12:50:53.595Z,4.87
2019-01-03T12:53:20.440Z,4.98
2019-01-03T12:55:48.296Z,4.85
2019-01-03T12:58:15.030Z,4.70
2019-01-03T13:00:42.269Z,4.63
2019-01-03T13:03:09.048Z,4.65
2019-01-03T13:05:35.916Z,4.69
2019-01-03T13:08:02.809Z,4.68
2019-01-03T13:10:29.563Z,4.77
2019-01-03T13:12:56.339Z,4.94
2019-01-03T13:15:23.102Z,5.03
2019-01-03T13:17:49.878Z,5.04
2019-01-03T13:20:16.585Z,5.01
2019-01-03T13:22:46.286Z,5.19
2019-01-03T13:25:13.044Z,5.19
2019-01-03T13:27:39.900Z,5.30
2019-01-03T13:30:08.484Z,5.28
2019-01-03T13:32:35.234Z,5.44
2019-01-03T13:35:01.979Z,5.50
2019-01-03T13:37:28.703Z,5.59
2019-01-03T13:39:57.443Z,5.59
2019-01-03T13:42:24.184Z,5.60
2019-01-03T13:44:51.036Z,5.38
2019-01-03T13:47:19.785Z,5.34
2019-01-03T13:49:47.336Z,5.55
2019-01-03T13:52:14.165Z,5.53
2019-01-03T13:54:41.184Z,5.50
2019-01-03T13:57:10.847Z,5.61
2019-01-03T13:59:41.106Z,5.56
2019-01-03T14:02:09.527Z,5.56
2019-01-03T14:04:36.265Z,5.51
2019-01-03T14:07:03.227Z,5.52
2019-01-03T14:09:29.955Z,5.52
2019-01-03T14:11:56.698Z,5.48
2019-01-03T14:14:23.529Z,5.34
2019-01-03T14:16:50.250Z,5.35
2019-01-03T14:19:17.375Z,5.47
2019-01-03T14:21:44.336Z,5.37
2019-01-03T14:24:11.197Z,5.15
2019-01-03T14:26:38.897Z,5.03
2019-01-03T14:29:05.763Z,5.14
2019-01-03T14:31:32.515Z,5.14
2019-01-03T14:33:59.354Z,5.28
2019-01-03T14:36:26.073Z,5.28
2019-01-03T14:38:55.140Z,5.46
2019-01-03T14:41:21.895Z,5.54
2019-01-03T14:43:48.772Z,5.54
2019-01-03T14:46:15.661Z,5.59
2019-01-03T14:48:42.521Z,5.65
2019-01-03T14:51:09.614Z,5.67
2019-01-03T14:53:36.624Z,5.67
2019-01-03T14:56:03.637Z,5.59
2019-01-03T14:58:30.786Z,5.68
2019-01-03T15:00:57.547Z,5.65
2019-01-03T15:03:24.302Z,5.65
2019-01-03T15:05:51.133Z,5.71
2019-01-03T15:08:18.122Z,5.83
2019-01-03T15:10:44.975Z,5.64
2019-01-03T15:13:12.108Z,5.60
2019-01-03T15:15:38.907Z,5.72
2019-01-03T15:18:08.058Z,5.82
2019-01-03T15:20:34.965Z,5.59
2019-01-03T15:23:01.710Z,5.43
2019-01-03T15:25:28.573Z,5.58
2019-01-03T15:27:55.443Z,5.58
2019-01-03T15:30:24.071Z,5.69
2019-01-03T15:32:50.809Z,5.64
2019-01-03T15:35:17.522Z,5.72
2019-01-03T15:37:44.248Z,5.71
2019-01-03T15:40:11.029Z,5.82
2019-01-03T15:42:37.831Z,5.82
2019-01-03T15:45:05.883Z,5.82
2019-01-03T15:47:32.606Z,5.87
2019-01-03T15:50:00.309Z,5.85
2019-01-03T15:52:27.184Z,5.92
2019-01-03T15:54:53.986Z,5.87
2019-01-03T15:57:24.054Z,5.87
2019-01-03T15:59:51.031Z,5.88
2019-01-03T16:02:17.904Z,5.53
2019-01-03T16:04:44.782Z,5.54
2019-01-03T16:07:11.523Z,5.58
2019-01-03T16:09:38.259Z,5.58
2019-01-03T16:12:05.089Z,5.61
2019-01-03T16:14:31.908Z,5.60
2019-01-03T16:16:58.693Z,5.49
2019-01-03T16:19:27.285Z,5.54
2019-01-03T16:21:54.200Z,5.78
2019-01-03T16:24:20.938Z,5.79
2019-01-03T16:26:47.786Z,5.79
2019-01-03T16:29:14.495Z,5.87
2019-01-03T16:31:41.308Z,5.86
2019-01-03T16:34:08.163Z,5.89
2019-01-03T16:36:34.951Z,5.91
2019-01-03T16:39:02.172Z,5.96
2019-01-03T16:41:29.179Z,5.89
2019-01-03T16:43:55.952Z,5.89
2019-01-03T16:46:24.006Z,5.81
2019-01-03T16:48:52.867Z,5.71
2019-01-03T16:51:19.965Z,5.63
2019-01-03T16:53:46.884Z,5.59
2019-01-03T16:56:14.058Z,5.64
2019-01-03T16:58:40.855Z,5.64
2019-01-03T17:01:07.801Z,5.60
2019-01-03T17:03:34.545Z,5.55
2019-01-03T17:06:01.288Z,5.56
2019-01-03T17:08:28.125Z,5.53
2019-01-03T17:10:56.947Z,5.57
2019-01-03T17:13:23.835Z,5.63
2019-01-03T17:15:50.795Z,5.62
2019-01-03T17:18:17.780Z,5.62
2019-01-03T17:20:44.702Z,5.57
2019-01-03T17:23:11.465Z,5.69
2019-01-03T17:25:38.275Z,5.69
2019-01-03T17:28:05.166Z,5.76
2019-01-03T17:30:33.252Z,5.69
2019-01-03T17:33:00.047Z,5.71
2019-01-03T17:35:26.935Z,5.55
2019-01-03T17:37:54.914Z,5.55
2019-01-03T17:40:21.735Z,5.63
2019-01-03T17:42:49.228Z,5.51
2019-01-03T17:45:15.971Z,5.47
2019-01-03T17:47:42.762Z,5.55
2019-01-03T17:50:09.992Z,5.55
2019-01-03T17:52:36.743Z,5.63
2019-01-03T17:55:04.112Z,5.67
2019-01-03T17:57:32.277Z,5.70
2019-01-03T17:59:59.055Z,5.70
2019-01-03T18:02:26.009Z,5.64
2019-01-03T18:04:53.068Z,5.60
2019-01-03T18:07:19.785Z,5.55
2019-01-03T18:09:46.697Z,5.59
2019-01-03T18:12:13.588Z,5.52
2019-01-03T18:14:41.521Z,5.52
2019-01-03T18:17:08.441Z,5.53
2019-01-03T18:19:35.742Z,5.53
2019-01-03T18:22:04.527Z,5.56
2019-01-03T18:24:31.287Z,5.56
2019-01-03T18:26:58.174Z,5.53
2019-01-03T18:29:26.247Z,5.49
2019-01-03T18:31:53.245Z,5.48
2019-01-03T18:34:21.302Z,5.48
2019-01-03T18:36:48.639Z,5.45
2019-01-03T18:39:15.629Z,5.45
2019-01-03T18:41:42.847Z,5.50
2019-01-03T18:44:10.147Z,5.56
2019-01-03T18:46:37.387Z,5.57
2019-01-03T18:49:04.139Z,5.64
2019-01-03T18:51:30.885Z,5.71
2019-01-03T18:53:57.892Z,5.72
2019-01-03T18:56:26.682Z,5.73
2019-01-03T18:58:53.459Z,5.69
2019-01-03T19:01:20.545Z,5.69
2019-01-03T19:03:47.950Z,5.62
2019-01-03T19:06:14.827Z,5.66
2019-01-03T19:08:41.707Z,5.66
2019-01-03T19:11:09.076Z,5.58
2019-01-03T19:13:35.919Z,5.61
2019-01-03T19:16:02.650Z,5.61
2019-01-03T19:18:29.506Z,5.36
2019-01-03T19:20:56.252Z,5.36
2019-01-03T19:23:23.192Z,5.36
2019-01-03T19:25:49.917Z,5.46
2019-01-03T19:28:17.608Z,5.46
2019-01-03T19:30:44.335Z,5.42
2019-01-03T19:33:11.135Z,5.33
2019-01-03T19:35:38.274Z,5.33
2019-01-03T19:38:05.250Z,5.31
2019-01-03T19:40:32.102Z,5.31
2019-01-03T19:42:58.877Z,5.41
2019-01-03T19:45:25.652Z,5.41
2019-01-03T19:47:52.632Z,5.50
2019-01-03T19:50:19.856Z,5.63
2019-01-03T19:52:46.589Z,5.64
2019-01-03T19:55:13.479Z,5.64
2019-01-03T19:57:40.507Z,5.61
2019-01-03T20:00:09.150Z,5.56
2019-01-03T20:02:36.015Z,5.57
2019-01-03T20:05:02.888Z,5.61
2019-01-03T20:07:29.696Z,5.60
2019-01-03T20:09:56.478Z,5.54
2019-01-03T20:12:23.427Z,5.52
2019-01-03T20:14:50.367Z,5.58
2019-01-03T20:17:17.106Z,5.62
2019-01-03T20:19:43.832Z,5.60
2019-01-03T20:22:10.894Z,5.59
2019-01-03T20:24:37.824Z,5.71
2019-01-03T20:27:04.734Z,5.72
2019-01-03T20:29:31.584Z,5.72
2019-01-03T20:31:58.596Z,5.65
2019-01-03T20:34:25.541Z,5.61
2019-01-03T20:36:52.741Z,5.73
2019-01-03T20:39:19.775Z,5.73
2019-01-03T20:41:46.582Z,5.70
2019-01-03T20:44:13.527Z,5.70
2019-01-03T20:46:40.257Z,5.68
2019-01-03T20:49:07.516Z,5.81
2019-01-03T20:51:34.836Z,5.80
2019-01-03T20:54:01.729Z,5.80
2019-01-03T20:56:28.701Z,5.81
2019-01-03T20:58:57.143Z,5.81
2019-01-03T21:01:24.133Z,5.81
2019-01-03T21:03:50.895Z,5.81
2019-01-03T21:06:19.831Z,5.60
2019-01-03T21:08:46.952Z,5.60
2019-01-03T21:11:13.950Z,5.38
2019-01-03T21:13:40.755Z,5.38
2019-01-03T21:16:08.215Z,5.62
2019-01-03T21:18:35.130Z,5.62
2019-01-03T21:21:02.329Z,5.79
2019-01-03T21:23:29.081Z,5.70
2019-01-03T21:25:55.855Z,5.71
2019-01-03T21:28:25.121Z,5.82
2019-01-03T21:30:51.929Z,5.82
2019-01-03T21:33:19.997Z,5.77
2019-01-03T21:35:47.010Z,5.69
2019-01-03T21:38:14.153Z,5.77
2019-01-03T21:40:41.130Z,5.81
2019-01-03T21:43:08.104Z,5.53
2019-01-03T21:45:34.995Z,5.53
2019-01-03T21:48:02.414Z,5.42
2019-01-03T21:50:30.049Z,5.42
2019-01-03T21:52:56.838Z,5.41
2019-01-03T21:55:23.688Z,5.38
2019-01-03T21:57:53.140Z,5.27
2019-01-03T22:00:19.964Z,5.07
2019-01-03T22:02:46.740Z,5.06
2019-01-03T22:05:13.879Z,5.01
2019-01-03T22:07:43.078Z,5.27
2019-01-03T22:10:10.208Z,5.27
2019-01-03T22:12:36.928Z,5.61
2019-01-03T22:15:05.089Z,5.61
2019-01-03T22:17:31.800Z,5.58
2019-01-03T22:19:58.574Z,5.63
2019-01-03T22:22:25.521Z,5.63
2019-01-03T22:24:52.282Z,5.85
2019-01-03T22:27:19.107Z,5.58
2019-01-03T22:29:46.523Z,5.66
2019-01-03T22:32:13.263Z,5.35
2019-01-03T22:34:39.990Z,5.16
2019-01-03T22:37:06.813Z,5.09
2019-01-03T22:39:33.574Z,4.97
2019-01-03T22:42:00.297Z,5.08
2019-01-03T22:44:27.252Z,5.08
2019-01-03T22:46:54.126Z,5.14
2019-01-03T22:49:20.904Z,5.16
2019-01-03T22:51:47.825Z,4.80
2019-01-03T22:54:14.679Z,4.80
2019-01-03T22:56:41.422Z,4.75
2019-01-03T22:59:10.883Z,4.76
2019-01-03T23:01:37.898Z,4.88
2019-01-03T23:04:05.063Z,4.89
2019-01-03T23:06:33.791Z,4.87
2019-01-03T23:09:00.796Z,4.93
2019-01-03T23:11:27.524Z,5.11
2019-01-03T23:13:54.284Z,5.11
2019-01-03T23:16:21.266Z,5.06
2019-01-03T23:18:48.029Z,5.06
2019-01-03T23:21:14.878Z,5.06
2019-01-03T23:23:41.700Z,5.06
2019-01-03T23:26:08.516Z,5.13
2019-01-03T23:28:36.407Z,5.13
2019-01-03T23:31:05.980Z,5.21
2019-01-03T23:33:33.033Z,5.29
2019-01-03T23:35:59.769Z,5.30
2019-01-03T23:38:27.312Z,4.99
2019-01-03T23:40:55.921Z,4.99
2019-01-03T23:43:22.715Z,5.09
2019-01-03T23:45:49.718Z,5.09
2019-01-03T23:48:16.645Z,5.03
2019-01-03T23:50:43.423Z,5.32
2019-01-03T23:53:10.315Z,5.18
2019-01-03T23:55:50.105Z,5.18
2019-01-03T23:58:17.064Z,5.18
